createdAt,value
2022-12-01T00:00:56.733Z,102066.79
2022-12-01T00:03:27.631Z,102061.55
2022-12-01T00:06:09.431Z,102058.78
2022-12-01T00:08:40.376Z,102056.97
2022-12-01T00:11:15.243Z,102054.38
2022-12-01T00:13:45.545Z,102056.17
2022-12-01T00:16:17.915Z,102056.25
2022-12-01T00:18:53.714Z,102055.32
2022-12-01T00:21:26.561Z,102060.53
2022-12-01T00:23:58.707Z,102052.61
2022-12-01T00:26:29.382Z,102059.61
2022-12-01T00:29:00.803Z,102058.05
2022-12-01T00:31:31.852Z,102049.21
2022-12-01T00:34:05.687Z,102056.32
2022-12-01T00:36:34.515Z,102054.45
2022-12-01T00:39:04.905Z,102053.61
2022-12-01T00:41:35.429Z,102044.72
2022-12-01T00:44:06.528Z,102050.95
2022-12-01T00:46:36.923Z,102037.63
2022-12-01T00:49:07.222Z,102043.87
2022-12-01T00:51:37.489Z,102035.92
2022-12-01T00:54:07.799Z,102041.27
2022-12-01T00:56:38.503Z,102042.97
2022-12-01T00:59:09.421Z,102038.59
2022-12-01T01:01:40.261Z,102035.95
2022-12-01T01:04:10.576Z,102040.40
2022-12-01T01:06:42.490Z,102040.22
2022-12-01T01:09:14.014Z,102029.84
2022-12-01T01:11:44.742Z,102034.22
2022-12-01T01:14:15.421Z,102028.89
2022-12-01T01:16:45.737Z,102034.20
2022-12-01T01:19:16.899Z,102031.55
2022-12-01T01:21:47.271Z,102034.19
2022-12-01T01:24:17.847Z,102033.23
2022-12-01T01:26:48.944Z,102029.82
2022-12-01T01:29:19.393Z,102037.76
2022-12-01T01:31:49.703Z,102030.65
2022-12-01T01:34:20.362Z,102033.20
2022-12-01T01:36:50.675Z,102028.85
2022-12-01T01:39:21.151Z,102028.03
2022-12-01T01:41:52.979Z,102028.89
2022-12-01T01:44:56.908Z,102019.25
2022-12-01T01:47:33.018Z,102020.11
2022-12-01T01:50:12.735Z,102020.98
2022-12-01T01:52:47.659Z,102024.48
2022-12-01T01:55:18.730Z,102025.34
2022-12-01T01:57:50.283Z,102025.33
2022-12-01T02:00:22.687Z,102020.89
2022-12-01T02:02:54.305Z,102028.75
2022-12-01T02:05:27.803Z,102027.97
2022-12-01T02:08:00.500Z,102020.09
2022-12-01T02:10:36.827Z,102023.63
2022-12-01T02:13:36.303Z,102025.47
2022-12-01T02:16:25.956Z,102029.82
2022-12-01T02:19:14.898Z,102030.80
2022-12-01T02:22:06.735Z,102027.18
2022-12-01T02:24:56.814Z,102029.86
2022-12-01T02:27:36.534Z,102021.94
2022-12-01T02:30:13.165Z,102024.58
2022-12-01T02:33:07.659Z,102029.89
2022-12-01T02:35:41.298Z,102028.06
2022-12-01T02:38:20.844Z,102030.81
2022-12-01T02:41:00.069Z,102025.51
2022-12-01T02:44:02.462Z,102029.87
2022-12-01T02:46:38.371Z,102035.23
2022-12-01T02:49:11.921Z,102027.25
2022-12-01T02:51:46.443Z,102024.61
2022-12-01T02:54:18.198Z,102029.86
2022-12-01T02:56:52.848Z,102030.84
2022-12-01T02:59:23.394Z,102029.98
2022-12-01T03:02:00.476Z,102024.69
2022-12-01T03:05:01.693Z,102022.00
2022-12-01T03:07:44.654Z,102020.29
2022-12-01T03:10:21.076Z,102017.63
2022-12-01T03:13:10.340Z,102017.63
2022-12-01T03:15:55.891Z,102017.64
2022-12-01T03:18:27.782Z,102019.39
2022-12-01T03:21:13.366Z,102015.88
2022-12-01T03:23:51.340Z,102012.34
2022-12-01T03:26:24.816Z,102022.93
2022-12-01T03:28:58.533Z,102018.51
2022-12-01T03:31:32.006Z,102019.39
2022-12-01T03:34:11.596Z,102014.99
2022-12-01T03:36:45.215Z,102019.38
2022-12-01T03:39:20.233Z,102019.31
2022-12-01T03:41:53.827Z,102010.48
2022-12-01T03:44:27.701Z,102021.92
2022-12-01T03:47:07.176Z,102016.69
2022-12-01T03:49:39.182Z,102020.22
2022-12-01T03:52:30.631Z,102017.61
2022-12-01T03:55:22.718Z,102019.38
2022-12-01T03:58:08.119Z,102020.28
2022-12-01T04:00:39.101Z,102014.09
2022-12-01T04:03:09.687Z,102011.41
2022-12-01T04:05:40.607Z,102017.61
2022-12-01T04:08:11.660Z,102014.05
2022-12-01T04:10:42.232Z,102012.26
2022-12-01T04:13:14.437Z,102013.16
2022-12-01T04:15:45.598Z,102012.33
2022-12-01T04:18:16.391Z,102013.19
2022-12-01T04:20:48.507Z,102008.72
2022-12-01T04:23:37.306Z,102005.20
2022-12-01T04:26:15.495Z,102007.89
2022-12-01T04:28:42.406Z,102003.45
2022-12-01T04:31:14.922Z,102008.73
2022-12-01T04:33:46.901Z,102009.66
2022-12-01T04:36:17.370Z,102009.57
2022-12-01T04:38:49.125Z,101999.87
2022-12-01T04:41:19.846Z,102010.48
2022-12-01T04:43:50.672Z,102013.97
2022-12-01T04:46:21.803Z,102011.39
2022-12-01T04:48:53.561Z,102016.60
2022-12-01T04:51:25.470Z,102022.67
2022-12-01T04:53:57.397Z,102013.91
2022-12-01T04:56:28.130Z,102013.05
2022-12-01T04:58:59.810Z,102013.98
2022-12-01T05:01:30.676Z,102015.69
2022-12-01T05:04:02.919Z,102014.77
2022-12-01T05:06:33.672Z,102019.31
2022-12-01T05:09:05.229Z,102015.72
2022-12-01T05:11:37.042Z,102014.81
2022-12-01T05:14:08.258Z,102017.55
2022-12-01T05:16:38.914Z,102010.45
2022-12-01T05:19:27.567Z,102005.09
2022-12-01T05:21:58.506Z,102015.75
2022-12-01T05:24:29.375Z,102016.66
2022-12-01T05:26:59.879Z,102020.20
2022-12-01T05:29:33.257Z,102017.55
2022-12-01T05:32:04.002Z,102020.22
2022-12-01T05:34:36.548Z,102020.23
2022-12-01T05:37:07.286Z,102019.34
2022-12-01T05:39:40.462Z,102017.60
2022-12-01T05:42:11.004Z,102015.84
2022-12-01T05:44:42.071Z,102010.55
2022-12-01T05:47:13.211Z,102015.83
2022-12-01T05:49:43.782Z,102021.18
2022-12-01T05:52:14.358Z,102014.97
2022-12-01T05:54:44.878Z,102013.13
2022-12-01T05:57:15.358Z,102023.68
2022-12-01T05:59:47.633Z,102010.47
2022-12-01T06:02:18.677Z,102014.04
2022-12-01T06:04:49.413Z,102004.31
2022-12-01T06:07:20.818Z,102010.54
2022-12-01T06:09:51.605Z,102017.62
2022-12-01T06:12:24.333Z,102012.24
2022-12-01T06:14:54.896Z,102019.34
2022-12-01T06:17:25.390Z,102014.05
2022-12-01T06:19:57.237Z,102022.94
2022-12-01T06:22:27.793Z,102022.94
2022-12-01T06:24:58.918Z,102027.31
2022-12-01T06:27:29.886Z,102029.11
2022-12-01T06:30:00.429Z,102025.57
2022-12-01T06:32:30.885Z,102031.77
2022-12-01T06:35:01.389Z,102033.55
2022-12-01T06:37:31.877Z,102038.02
2022-12-01T06:40:02.414Z,102030.92
2022-12-01T06:42:33.458Z,102036.22
2022-12-01T06:45:03.836Z,102038.02
2022-12-01T06:47:35.101Z,102044.23
2022-12-01T06:50:10.183Z,102042.39
2022-12-01T06:52:41.362Z,102044.16
2022-12-01T06:55:11.818Z,102050.39
2022-12-01T06:57:43.666Z,102051.30
2022-12-01T07:00:15.454Z,102060.13
2022-12-01T07:02:46.621Z,102050.39
2022-12-01T07:05:17.450Z,102057.45
2022-12-01T07:07:48.013Z,102052.17
2022-12-01T07:10:18.525Z,102056.54
2022-12-01T07:12:49.051Z,102055.69
2022-12-01T07:15:19.822Z,102055.66
2022-12-01T07:17:50.683Z,102039.78
2022-12-01T07:20:21.311Z,102055.71
2022-12-01T07:22:51.806Z,102055.69
2022-12-01T07:25:22.309Z,102055.64
2022-12-01T07:27:53.006Z,102054.79
2022-12-01T07:30:28.270Z,102058.30
2022-12-01T07:32:56.333Z,102053.05
2022-12-01T07:35:27.042Z,102058.36
2022-12-01T07:37:58.701Z,102067.17
2022-12-01T07:40:29.125Z,102058.34
2022-12-01T07:43:01.242Z,102060.06
2022-12-01T07:45:32.326Z,102060.99
2022-12-01T07:48:04.047Z,102059.27
2022-12-01T07:50:34.610Z,102061.90
2022-12-01T07:53:05.237Z,102058.34
2022-12-01T07:55:37.296Z,102061.89
2022-12-01T07:58:12.115Z,102059.22
2022-12-01T08:00:43.770Z,102065.38
2022-12-01T08:03:15.126Z,102063.61
2022-12-01T08:05:47.215Z,102065.38
2022-12-01T08:08:18.153Z,102074.27
2022-12-01T08:10:48.685Z,102066.28
2022-12-01T08:13:21.135Z,102066.30
2022-12-01T08:15:51.664Z,102064.54
2022-12-01T08:18:24.466Z,102067.17
2022-12-01T08:20:59.553Z,102069.77
2022-12-01T08:23:30.058Z,102068.96
2022-12-01T08:26:12.730Z,102072.48
2022-12-01T08:28:44.161Z,102062.80
2022-12-01T08:31:20.682Z,102066.34
2022-12-01T08:33:57.644Z,102062.79
2022-12-01T08:36:29.238Z,102067.22
2022-12-01T08:39:00.642Z,102073.44
2022-12-01T08:41:32.812Z,102065.44
2022-12-01T08:44:04.332Z,102065.45
2022-12-01T08:46:36.279Z,102063.70
2022-12-01T08:49:07.946Z,102067.23
2022-12-01T08:51:38.915Z,102077.84
2022-12-01T08:54:10.934Z,102077.84
2022-12-01T08:56:46.251Z,102085.78
2022-12-01T08:59:16.674Z,102078.73
2022-12-01T09:01:58.991Z,102084.92
2022-12-01T09:04:29.778Z,102079.56
2022-12-01T09:07:00.820Z,102073.38
2022-12-01T09:09:31.888Z,102085.82
2022-12-01T09:12:02.525Z,102086.68
2022-12-01T09:14:33.141Z,102074.28
2022-12-01T09:17:03.657Z,102070.77
2022-12-01T09:19:35.074Z,102072.56
2022-12-01T09:22:07.279Z,102074.31
2022-12-01T09:24:37.828Z,102065.50
2022-12-01T09:27:08.474Z,102067.28
2022-12-01T09:29:41.411Z,102069.88
2022-12-01T09:32:12.136Z,102070.75
2022-12-01T09:34:43.078Z,102062.80
2022-12-01T09:37:13.777Z,102059.27
2022-12-01T09:39:44.254Z,102062.80
2022-12-01T09:42:20.437Z,102055.73
2022-12-01T09:44:58.381Z,102053.08
2022-12-01T09:47:31.881Z,102047.77
2022-12-01T09:50:22.045Z,102041.59
2022-12-01T09:53:00.032Z,102039.81
2022-12-01T09:55:33.094Z,102030.08
2022-12-01T09:58:06.033Z,102038.88
2022-12-01T10:00:40.014Z,102042.48
2022-12-01T10:03:40.801Z,102039.80
2022-12-01T10:06:27.113Z,102041.60
2022-12-01T10:08:55.501Z,102039.80
2022-12-01T10:11:35.253Z,102040.59
2022-12-01T10:14:07.441Z,102033.57
2022-12-01T10:16:43.988Z,102037.10
2022-12-01T10:19:20.281Z,102040.70
2022-12-01T10:22:11.405Z,102042.42
2022-12-01T10:25:04.520Z,102029.09
2022-12-01T10:28:02.331Z,102037.10
2022-12-01T10:30:36.124Z,102038.81
2022-12-01T10:33:18.599Z,102037.06
2022-12-01T10:35:49.074Z,102029.09
2022-12-01T10:38:25.246Z,102021.94
2022-12-01T10:40:59.657Z,102021.19
2022-12-01T10:43:37.032Z,102019.38
2022-12-01T10:46:13.224Z,102024.69
2022-12-01T10:48:56.005Z,102020.16
2022-12-01T10:51:28.434Z,102023.78
2022-12-01T10:54:11.620Z,102016.75
2022-12-01T10:56:47.257Z,102008.78
2022-12-01T10:59:38.914Z,101998.18
2022-12-01T11:02:18.149Z,101998.18
2022-12-01T11:04:58.860Z,102012.31
2022-12-01T11:07:35.102Z,102004.30
2022-12-01T11:10:31.324Z,102014.97
2022-12-01T11:13:05.796Z,102006.13
2022-12-01T11:15:42.961Z,102009.70
2022-12-01T11:18:31.706Z,102002.64
2022-12-01T11:21:16.950Z,102002.64
2022-12-01T11:23:52.521Z,101997.31
2022-12-01T11:26:25.838Z,102000.84
2022-12-01T11:29:07.890Z,101997.30
2022-12-01T11:31:41.578Z,101998.20
2022-12-01T11:34:34.628Z,101995.50
2022-12-01T11:37:11.045Z,101994.62
2022-12-01T11:39:43.460Z,102001.59
2022-12-01T11:42:16.862Z,101998.11
2022-12-01T11:45:02.667Z,101998.98
2022-12-01T11:47:32.407Z,101997.16
2022-12-01T11:50:05.745Z,101995.31
2022-12-01T11:52:40.544Z,101990.14
2022-12-01T11:55:17.968Z,101991.02
2022-12-01T11:57:52.773Z,101989.27
2022-12-01T12:00:26.546Z,101992.87
2022-12-01T12:03:22.484Z,101983.95
2022-12-01T12:06:11.713Z,101986.56
2022-12-01T12:08:41.946Z,101977.77
2022-12-01T12:11:24.749Z,101979.55
2022-12-01T12:14:28.871Z,101981.33
2022-12-01T12:17:20.776Z,101977.77
2022-12-01T12:20:23.470Z,101978.64
2022-12-01T12:23:15.177Z,101983.11
2022-12-01T12:25:48.869Z,101980.42
2022-12-01T12:28:38.972Z,101984.83
2022-12-01T12:31:12.510Z,101983.08
2022-12-01T12:34:01.044Z,101981.29
2022-12-01T12:36:46.283Z,101980.42
2022-12-01T12:39:31.515Z,101965.39
2022-12-01T12:42:04.928Z,101965.39
2022-12-01T12:44:39.561Z,101986.65
2022-12-01T12:47:16.894Z,101989.30
2022-12-01T12:50:11.443Z,101981.30
2022-12-01T12:52:45.247Z,101985.77
2022-12-01T12:55:24.144Z,101985.80
2022-12-01T12:58:15.798Z,101976.05
2022-12-01T13:00:51.953Z,101976.06
2022-12-01T13:03:33.747Z,101975.17
2022-12-01T13:06:07.482Z,101981.38
2022-12-01T13:08:42.089Z,101977.84
2022-12-01T13:11:27.300Z,101979.62
2022-12-01T13:14:03.407Z,101979.61
2022-12-01T13:16:42.668Z,101982.27
2022-12-01T13:19:19.858Z,101978.72
2022-12-01T13:21:53.130Z,101980.45
2022-12-01T13:24:27.871Z,101972.48
2022-12-01T13:27:07.291Z,101976.96
2022-12-01T13:29:44.006Z,101974.29
2022-12-01T13:32:32.374Z,101969.86
2022-12-01T13:35:08.543Z,101967.14
2022-12-01T13:37:40.299Z,101975.14
2022-12-01T13:40:22.588Z,101979.51
2022-12-01T13:43:10.609Z,101980.38
2022-12-01T13:45:41.086Z,101979.51
2022-12-01T13:48:32.148Z,101978.58
2022-12-01T13:51:05.028Z,101983.03
2022-12-01T13:53:39.664Z,101983.91
2022-12-01T13:56:20.227Z,101986.65
2022-12-01T13:58:55.290Z,101974.27
2022-12-01T14:01:30.441Z,101972.52
2022-12-01T14:04:19.087Z,101969.86
2022-12-01T14:06:51.336Z,101975.14
2022-12-01T14:09:31.784Z,101968.92
2022-12-01T14:12:05.278Z,101976.95
2022-12-01T14:14:41.686Z,101970.77
2022-12-01T14:17:26.860Z,101975.16
2022-12-01T14:19:59.164Z,101977.81
2022-12-01T14:22:35.442Z,101975.20
2022-12-01T14:25:25.925Z,101986.70
2022-12-01T14:27:58.813Z,101989.33
2022-12-01T14:30:46.842Z,101986.68
2022-12-01T14:33:42.809Z,101982.27
2022-12-01T14:36:28.193Z,101985.80
2022-12-01T14:39:04.703Z,101985.78
2022-12-01T14:41:56.364Z,101982.27
2022-12-01T14:44:36.249Z,101976.05
2022-12-01T14:47:22.690Z,101976.05
2022-12-01T14:50:28.148Z,101973.41
2022-12-01T14:53:01.416Z,101967.20
2022-12-01T14:55:35.955Z,101974.30
2022-12-01T14:58:15.292Z,101969.89
2022-12-01T15:01:12.633Z,101969.02
2022-12-01T15:03:52.305Z,101964.55
2022-12-01T15:06:28.467Z,101963.66
2022-12-01T15:12:02.486Z,101966.35
2022-12-01T15:14:38.434Z,101969.89
2022-12-01T15:17:09.342Z,101972.56
2022-12-01T15:19:44.106Z,101971.67
2022-12-01T15:22:18.363Z,101962.81
2022-12-01T15:24:49.249Z,101961.02
2022-12-01T15:27:31.883Z,101963.69
2022-12-01T15:30:04.940Z,101959.27
2022-12-01T15:32:39.532Z,101968.13
2022-12-01T15:35:13.015Z,101957.46
2022-12-01T15:37:46.826Z,101957.46
2022-12-01T15:43:20.385Z,101964.55
2022-12-01T15:45:53.916Z,101961.01
2022-12-01T15:48:33.607Z,101964.58
2022-12-01T15:51:11.040Z,101959.23
2022-12-01T15:53:54.239Z,101953.96
2022-12-01T15:56:36.452Z,101961.86
2022-12-01T15:59:14.986Z,101953.02
2022-12-01T16:01:46.290Z,101953.84
2022-12-01T16:04:19.685Z,101960.95
2022-12-01T16:07:02.283Z,101956.51
2022-12-01T16:09:57.846Z,101957.46
2022-12-01T16:12:32.414Z,101951.19
2022-12-01T16:15:10.271Z,101960.04
2022-12-01T16:17:46.624Z,101960.14
2022-12-01T16:20:28.659Z,101966.27
2022-12-01T16:23:01.947Z,101972.45
2022-12-01T16:25:38.247Z,101969.86
2022-12-01T16:28:23.885Z,101964.48
2022-12-01T16:30:55.201Z,101967.17
2022-12-01T16:33:27.834Z,101965.39
2022-12-01T16:36:00.664Z,101954.80
2022-12-01T16:38:32.033Z,101952.11
2022-12-01T16:41:05.623Z,101958.29
2022-12-01T16:43:36.204Z,101953.89
2022-12-01T16:46:09.681Z,101961.86
2022-12-01T16:48:41.408Z,101954.77
2022-12-01T16:51:14.725Z,101953.85
2022-12-01T16:53:51.125Z,101954.72
2022-12-01T16:56:21.525Z,101951.19
2022-12-01T16:58:51.916Z,101957.38
2022-12-01T17:01:22.483Z,101964.48
2022-12-01T17:03:53.954Z,101959.16
2022-12-01T17:06:25.899Z,101969.80
2022-12-01T17:09:00.412Z,101962.70
2022-12-01T17:11:30.971Z,101965.35
2022-12-01T17:14:01.611Z,101960.95
2022-12-01T17:16:32.244Z,101967.17
2022-12-01T17:19:04.576Z,101961.82
2022-12-01T17:21:35.087Z,101960.91
2022-12-01T17:24:05.728Z,101966.27
2022-12-01T17:26:37.513Z,101967.12
2022-12-01T17:29:07.998Z,101963.56
2022-12-01T17:31:39.731Z,101968.01
2022-12-01T17:34:11.392Z,101970.67
2022-12-01T17:36:41.966Z,101967.12
2022-12-01T17:39:12.402Z,101960.91
2022-12-01T17:41:42.921Z,101960.03
2022-12-01T17:44:13.384Z,101958.24
2022-12-01T17:46:43.894Z,101964.52
2022-12-01T17:49:14.400Z,101961.90
2022-12-01T17:51:44.865Z,101958.36
2022-12-01T17:54:15.441Z,101962.73
2022-12-01T17:56:47.222Z,101960.95
2022-12-01T17:59:18.906Z,101957.41
2022-12-01T18:01:50.668Z,101963.64
2022-12-01T18:04:21.194Z,101954.77
2022-12-01T18:06:54.222Z,101958.33
2022-12-01T18:09:25.391Z,101955.64
2022-12-01T18:11:57.323Z,101961.86
2022-12-01T18:14:28.560Z,101960.95
2022-12-01T18:16:59.093Z,101958.30
2022-12-01T18:19:29.532Z,101950.36
2022-12-01T18:22:00.123Z,101953.89
2022-12-01T18:24:31.904Z,101951.23
2022-12-01T18:27:02.452Z,101956.55
2022-12-01T18:29:34.006Z,101954.77
2022-12-01T18:32:04.481Z,101954.77
2022-12-01T18:34:35.064Z,101949.45
2022-12-01T18:37:06.245Z,101952.11
2022-12-01T18:39:36.738Z,101929.15
2022-12-01T18:42:07.275Z,101952.98
2022-12-01T18:44:39.082Z,101951.20
2022-12-01T18:47:09.960Z,101952.11
2022-12-01T18:49:40.487Z,101957.42
2022-12-01T18:52:11.127Z,101950.33
2022-12-01T18:54:41.636Z,101951.20
2022-12-01T18:57:14.873Z,101950.33
2022-12-01T18:59:45.412Z,101947.67
2022-12-01T19:02:16.138Z,101947.67
2022-12-01T19:04:50.545Z,101943.27
2022-12-01T19:07:26.499Z,101938.83
2022-12-01T19:09:53.784Z,101947.70
2022-12-01T19:12:25.472Z,101942.39
2022-12-01T19:14:56.041Z,101948.58
2022-12-01T19:17:26.683Z,101942.35
2022-12-01T19:19:57.159Z,101939.73
2022-12-01T19:22:27.759Z,101940.61
2022-12-01T19:24:58.314Z,101942.36
2022-12-01T19:27:30.677Z,101940.61
2022-12-01T19:30:01.193Z,101943.27
2022-12-01T19:32:35.258Z,101939.73
2022-12-01T19:35:06.583Z,101943.27
2022-12-01T19:37:37.058Z,101943.27
2022-12-01T19:40:08.507Z,101945.01
2022-12-01T19:42:38.998Z,101945.92
2022-12-01T19:45:10.411Z,101942.39
2022-12-01T19:47:40.931Z,101941.52
2022-12-01T19:50:11.894Z,101944.17
2022-12-01T19:52:42.617Z,101940.64
2022-12-01T19:55:13.129Z,101945.05
2022-12-01T19:57:43.626Z,101950.36
2022-12-01T20:00:14.696Z,101945.05
2022-12-01T20:02:45.148Z,101941.52
2022-12-01T20:05:16.088Z,101948.58
2022-12-01T20:07:47.750Z,101946.86
2022-12-01T20:10:20.163Z,101949.45
2022-12-01T20:12:51.635Z,101946.83
2022-12-01T20:15:22.371Z,101951.27
2022-12-01T20:17:53.951Z,101940.64
2022-12-01T20:20:24.501Z,101938.86
2022-12-01T20:22:56.377Z,101940.64
2022-12-01T20:25:27.057Z,101941.52
2022-12-01T20:27:57.636Z,101941.52
2022-12-01T20:30:28.149Z,101945.05
2022-12-01T20:32:58.618Z,101946.86
2022-12-01T20:35:29.199Z,101939.77
2022-12-01T20:37:59.696Z,101936.20
2022-12-01T20:40:30.192Z,101938.86
2022-12-01T20:43:00.650Z,101937.98
2022-12-01T20:45:31.230Z,101939.77
2022-12-01T20:48:01.729Z,101939.77
2022-12-01T20:50:32.228Z,101928.23
2022-12-01T20:53:02.803Z,101930.02
2022-12-01T20:55:33.441Z,101927.36
2022-12-01T20:58:04.734Z,101925.58
2022-12-01T21:00:35.782Z,101925.58
2022-12-01T21:03:07.947Z,101935.33
2022-12-01T21:05:40.844Z,101930.05
2022-12-01T21:08:13.557Z,101927.40
2022-12-01T21:10:46.506Z,101929.17
2022-12-01T21:13:42.444Z,101927.40
2022-12-01T21:16:23.109Z,101928.27
2022-12-01T21:18:59.149Z,101927.40
2022-12-01T21:21:33.437Z,101921.18
2022-12-01T21:24:19.772Z,101930.93
2022-12-01T21:27:02.067Z,101931.84
2022-12-01T21:29:40.969Z,101932.71
2022-12-01T21:32:15.717Z,101937.11
2022-12-01T21:34:48.190Z,101929.15
2022-12-01T21:37:24.165Z,101930.93
2022-12-01T21:39:56.502Z,101928.27
2022-12-01T21:42:29.298Z,101931.80
2022-12-01T21:44:59.796Z,101937.11
2022-12-01T21:47:31.772Z,101933.59
2022-12-01T21:50:06.845Z,101931.84
2022-12-01T21:52:43.022Z,101937.14
2022-12-01T21:55:19.389Z,101936.23
2022-12-01T21:57:51.994Z,101937.15
2022-12-01T22:00:36.772Z,101932.71
2022-12-01T22:03:28.208Z,101932.71
2022-12-01T22:08:44.763Z,101923.88
2022-12-01T22:11:22.232Z,101926.45
2022-12-01T22:14:11.017Z,101916.77
2022-12-01T22:16:46.636Z,101918.52
2022-12-01T22:19:25.799Z,101918.48
2022-12-01T22:22:11.116Z,101914.99
2022-12-01T22:24:46.945Z,101908.81
2022-12-01T22:27:39.721Z,101911.43
2022-12-01T22:30:13.119Z,101914.99
2022-12-01T22:33:01.436Z,101907.90
2022-12-01T22:35:37.934Z,101902.59
2022-12-01T22:38:11.368Z,101899.06
2022-12-01T22:40:51.647Z,101898.15
2022-12-01T22:43:46.402Z,101899.06
2022-12-01T22:46:31.769Z,101897.27
2022-12-01T22:49:11.021Z,101891.96
2022-12-01T22:51:55.799Z,101897.28
2022-12-01T22:54:32.226Z,101892.84
2022-12-01T22:57:14.861Z,101891.95
2022-12-01T22:59:47.835Z,101892.88
2022-12-01T23:02:30.259Z,101890.22
2022-12-01T23:05:02.978Z,101900.84
2022-12-01T23:07:41.665Z,101893.75
2022-12-01T23:10:18.291Z,101890.18
2022-12-01T23:12:51.289Z,101896.45
2022-12-01T23:15:43.003Z,101893.78
2022-12-01T23:18:19.104Z,101891.09
2022-12-01T23:20:58.592Z,101890.22
2022-12-01T23:23:34.366Z,101890.25
2022-12-01T23:26:07.431Z,101874.29
2022-12-01T23:28:40.826Z,101884.91
2022-12-01T23:31:12.007Z,101881.37
2022-12-01T23:33:42.548Z,101881.37
2022-12-01T23:36:21.724Z,101886.72
2022-12-01T23:38:55.182Z,101884.08
2022-12-01T23:41:40.680Z,101889.39
2022-12-01T23:44:14.943Z,101892.03
2022-12-01T23:46:45.844Z,101892.95
2022-12-01T23:49:19.818Z,101886.72
2022-12-01T23:51:56.391Z,101885.82
2022-12-01T23:54:27.944Z,101890.16
2022-12-01T23:57:07.288Z,101884.09
2022-12-01T23:59:39.576Z,101884.02
